Kezdőlap
METAR-TAF:

METAR-TAF

Repülőterek :

Libreville, Gabon

földrajzi szélesség: 00-27N, földrajzi hosszúság: 009-25E, magasság: 12 m

Jelenlegi meteorológiai megfigyelések

A jelentés 6 perccel ezelõtt készült, 16:30 UTC
Nyugat-délnyugati szél 6 kt
Hőmérséklet 26°C
Páratartalom 74%
Légköri nyomás 1013 hPa
Látótávolság 10 km, vagy több
Szórványos felhőzet 1300 lábon

METAR: FOOL 181630Z 24006KT 9999 SCT013 26/21 Q1013 NOSIG

Idő: 17:36 (16:36 UTC)

Előrejelzés

A jelentés 5 órával és 36 perccel ezelõtt készült, 11:00 UTC
Az előrejelzés 18-én 12 óra UTC és 19-én 18 óra UTC között érvényes
Dél-délnyugati szél 8 kt
Látótávolság 10 km, vagy több
Szórványos felhőzet 1000 lábon
Szakadozott felhőzet 3000 lábon
18-én 22 óra UTC és 19-én 05 óra UTC között ideiglenes
Szakadozott felhőzet 1000 lábon
Borult 2600 lábon

TAF: FOOL 181100Z 1812/1918 20008KT 9999 SCT010 BKN030 TEMPO 1822/1905 BKN010 OVC026

Meteorológiai megfigyelések és előrejelzések több, mint 4000 repülőtéren (METAR és TAF jelentéseket).

A térképen piros és sárga pontok jelzik az elérhető meteorológiai állomásokat.

Mozgassa az egeret a pont fölött, hogy megjelenjen az állomás neve.

Azután kattintson az időjárási megfigyelések és előrejelzések megtekintéséhez.

A térkép megváltoztatása: kattintson a fekete keresztel jelölt zöld gombra ráközelítéshez, a vonallal jelölt zöld gombra távolításhoz, vagy a zöld nyilakra a szomszédos térképek eléréséhez.


METAR-TAF: